createdAt,value
2023-11-28T00:01:58.769Z,94919.53
2023-11-28T00:07:00.914Z,94908.25
2023-11-28T00:12:02.756Z,94897.13
2023-11-28T00:17:04.860Z,94893.88
2023-11-28T00:22:06.568Z,94874.94
2023-11-28T00:27:09.395Z,94883.34
2023-11-28T00:32:11.504Z,94885.78
2023-11-28T00:37:13.340Z,94870.06
2023-11-28T00:42:15.669Z,94872.78
2023-11-28T00:47:18.408Z,94867.63
2023-11-28T00:52:21.954Z,94858.13
2023-11-28T00:57:24.437Z,94858.66
2023-11-28T01:02:26.509Z,94854.28
2023-11-28T01:07:28.364Z,94852.09
2023-11-28T01:12:30.446Z,94840.19
2023-11-28T01:17:32.867Z,94844.00
2023-11-28T01:22:34.891Z,94835.88
2023-11-28T01:27:36.982Z,94834.47
2023-11-28T01:32:39.123Z,94823.91
2023-11-28T01:37:41.358Z,94818.50
2023-11-28T01:42:46.990Z,94818.94
2023-11-28T01:47:54.252Z,94806.97
2023-11-28T01:52:56.338Z,94808.00
2023-11-28T01:57:58.219Z,94802.03
2023-11-28T02:03:02.536Z,94796.59
2023-11-28T02:08:07.811Z,94797.66
2023-11-28T02:13:11.704Z,94801.44
2023-11-28T02:18:15.205Z,94790.84
2023-11-28T02:23:17.167Z,94793.28
2023-11-28T02:28:20.359Z,94795.38
2023-11-28T02:33:22.428Z,94789.38
2023-11-28T02:38:24.257Z,94786.88
2023-11-28T02:43:26.046Z,94781.75
2023-11-28T02:48:27.858Z,94772.75
2023-11-28T02:53:29.932Z,94773.56
2023-11-28T02:58:31.872Z,94760.66
2023-11-28T03:03:33.971Z,94761.13
2023-11-28T03:08:35.848Z,94761.34
2023-11-28T03:13:37.736Z,94767.53
2023-11-28T03:18:40.164Z,94758.72
2023-11-28T03:23:41.929Z,94756.06
2023-11-28T03:28:45.008Z,94750.63
2023-11-28T03:33:47.309Z,94751.94
2023-11-28T03:38:50.307Z,94743.03
2023-11-28T03:43:52.035Z,94742.19
2023-11-28T03:48:54.092Z,94742.47
2023-11-28T03:53:55.834Z,94736.75
2023-11-28T03:58:58.190Z,94718.53
2023-11-28T04:04:00.597Z,94719.78
2023-11-28T04:09:03.450Z,94716.91
2023-11-28T04:14:05.884Z,94712.25
2023-11-28T04:19:10.703Z,94717.59
2023-11-28T04:24:12.939Z,94712.41
2023-11-28T04:29:17.009Z,94706.97
2023-11-28T04:34:19.201Z,94705.16
2023-11-28T04:39:20.977Z,94698.53
2023-11-28T04:44:25.981Z,94703.03
2023-11-28T04:49:27.790Z,94697.00
2023-11-28T04:54:29.782Z,94694.31
2023-11-28T04:59:32.301Z,94701.22
2023-11-28T05:04:34.177Z,94706.88
2023-11-28T05:09:36.017Z,94694.63
2023-11-28T05:14:37.789Z,94687.59
2023-11-28T05:19:40.185Z,94685.13
2023-11-28T05:24:43.363Z,94682.00
2023-11-28T05:29:45.451Z,94676.00
2023-11-28T05:34:47.280Z,94674.16
2023-11-28T05:39:49.167Z,94682.13
2023-11-28T05:44:51.217Z,94673.97
2023-11-28T05:49:53.781Z,94684.31
2023-11-28T05:54:56.249Z,94672.34
2023-11-28T05:59:58.339Z,94673.47
2023-11-28T06:05:00.573Z,94678.00
2023-11-28T06:10:05.400Z,94688.25
2023-11-28T06:15:08.373Z,94688.63
2023-11-28T06:20:11.428Z,94691.44
2023-11-28T06:25:13.373Z,94697.44
2023-11-28T06:30:15.656Z,94702.78
2023-11-28T06:35:17.580Z,94694.44
2023-11-28T06:40:22.304Z,94692.31
2023-11-28T06:45:24.441Z,94691.72
2023-11-28T06:50:26.284Z,94702.06
2023-11-28T06:55:28.152Z,94705.81
2023-11-28T07:00:30.008Z,94707.63
2023-11-28T07:05:31.745Z,94711.88
2023-11-28T07:10:34.238Z,94714.78
2023-11-28T07:15:36.733Z,94721.75
2023-11-28T07:20:38.907Z,94730.41
2023-11-28T07:25:40.892Z,94730.41
2023-11-28T07:30:42.677Z,94740.66
2023-11-28T07:35:44.823Z,94747.19
2023-11-28T07:40:46.719Z,94755.91
2023-11-28T07:45:49.010Z,94751.66
2023-11-28T07:50:50.858Z,94763.09
2023-11-28T07:55:52.969Z,94773.63
2023-11-28T08:00:54.806Z,94775.53
2023-11-28T08:05:56.543Z,94786.38
2023-11-28T08:10:58.449Z,94796.63
2023-11-28T08:16:00.461Z,94793.88
2023-11-28T08:21:06.443Z,94801.47
2023-11-28T08:26:09.156Z,94818.25
2023-11-28T08:31:11.249Z,94830.19
2023-11-28T08:36:13.096Z,94839.44
2023-11-28T08:41:15.573Z,94852.25
2023-11-28T08:46:19.979Z,94852.59
2023-11-28T08:51:22.204Z,94855.03
2023-11-28T08:56:24.597Z,94862.38
2023-11-28T09:01:27.742Z,94868.28
2023-11-28T09:06:29.562Z,94869.91
2023-11-28T09:11:31.344Z,94874.72
2023-11-28T09:16:33.268Z,94888.22
2023-11-28T09:21:35.197Z,94889.25
2023-11-28T09:26:37.784Z,94890.94
2023-11-28T09:31:40.020Z,94900.09
2023-11-28T09:36:41.899Z,94911.53
2023-11-28T09:41:48.757Z,94910.44
2023-11-28T09:46:53.094Z,94908.44
2023-11-28T09:51:59.422Z,94935.16
2023-11-28T09:57:02.616Z,94923.34
2023-11-28T10:02:06.960Z,94926.66
2023-11-28T10:07:10.619Z,94970.19
2023-11-28T10:12:12.832Z,94948.94
2023-11-28T10:17:18.601Z,94961.44
2023-11-28T10:22:20.486Z,94980.97
2023-11-28T10:27:22.575Z,94988.84
2023-11-28T10:32:29.565Z,94987.25
2023-11-28T10:37:34.727Z,94999.38
2023-11-28T10:42:41.022Z,95015.72
2023-11-28T10:47:45.232Z,95029.81
2023-11-28T10:52:49.852Z,95037.41
2023-11-28T10:58:05.590Z,95053.13
2023-11-28T11:03:09.535Z,95054.47
2023-11-28T11:08:12.182Z,95068.81
2023-11-28T11:13:18.308Z,95076.13
2023-11-28T11:18:26.863Z,95111.03
2023-11-28T11:23:30.972Z,95115.66
2023-11-28T11:28:33.258Z,95137.56
2023-11-28T11:33:35.520Z,95153.78
2023-11-28T11:38:38.050Z,95160.28
2023-11-28T11:43:42.254Z,95172.16
2023-11-28T11:48:44.407Z,95177.31
2023-11-28T11:53:46.503Z,95195.94
2023-11-28T11:58:48.691Z,95194.59
2023-11-28T12:03:50.769Z,95206.22
2023-11-28T12:08:53.171Z,95217.88
2023-11-28T12:13:57.095Z,95231.06
2023-11-28T12:18:59.637Z,95249.19
2023-11-28T12:24:03.633Z,95268.91
2023-11-28T12:29:06.419Z,95278.09
2023-11-28T12:34:08.709Z,95297.56
2023-11-28T12:39:14.172Z,95302.16
2023-11-28T12:44:22.452Z,95335.03
2023-11-28T12:49:26.147Z,95344.47
2023-11-28T12:54:28.075Z,95352.03
2023-11-28T12:59:29.826Z,95361.16
2023-11-28T13:04:31.712Z,95373.06
2023-11-28T13:09:36.951Z,95390.31
2023-11-28T13:14:41.224Z,95394.63
2023-11-28T13:19:43.315Z,95413.00
2023-11-28T13:24:45.717Z,95427.31
2023-11-28T13:29:47.671Z,95429.81
2023-11-28T13:34:49.746Z,95451.63
2023-11-28T13:39:51.481Z,95477.75
2023-11-28T13:44:53.711Z,95501.22
2023-11-28T13:49:57.259Z,95510.06
2023-11-28T13:55:00.019Z,95526.16
2023-11-28T14:00:02.109Z,95542.34
2023-11-28T14:05:09.456Z,95558.53
2023-11-28T14:10:12.086Z,95579.66
2023-11-28T14:15:13.874Z,95583.69
2023-11-28T14:20:15.725Z,95604.94
2023-11-28T14:25:17.534Z,95633.69
2023-11-28T14:30:19.402Z,95635.19
2023-11-28T14:35:21.454Z,95636.63
2023-11-28T14:40:23.349Z,95648.09
2023-11-28T14:45:25.046Z,95661.47
2023-11-28T14:50:27.119Z,95682.22
2023-11-28T14:55:29.176Z,95694.94
2023-11-28T15:00:31.288Z,95711.56
2023-11-28T15:05:34.315Z,95728.25
2023-11-28T15:10:37.313Z,95729.63
2023-11-28T15:15:39.576Z,95736.50
2023-11-28T15:20:41.809Z,95747.63
2023-11-28T15:25:43.639Z,95760.84
2023-11-28T15:30:46.316Z,95759.03
2023-11-28T15:35:49.688Z,95788.13
2023-11-28T15:40:51.836Z,95790.06
2023-11-28T15:45:53.797Z,95803.88
2023-11-28T15:50:58.246Z,95817.28
2023-11-28T15:56:00.451Z,95824.22
2023-11-28T16:01:02.329Z,95839.59
2023-11-28T16:06:04.218Z,95850.22
2023-11-28T16:11:06.058Z,95855.63
2023-11-28T16:16:18.536Z,95868.28
2023-11-28T16:21:21.828Z,95890.56
2023-11-28T16:26:23.895Z,95898.59
2023-11-28T16:31:27.155Z,95900.22
2023-11-28T16:36:28.844Z,95905.13
2023-11-28T16:41:30.748Z,95909.53
2023-11-28T16:46:32.676Z,95913.31
2023-11-28T16:51:36.238Z,95916.56
2023-11-28T16:56:39.722Z,95926.22
2023-11-28T17:01:43.076Z,95940.81
2023-11-28T17:06:45.102Z,95954.00
2023-11-28T17:11:48.512Z,95952.03
2023-11-28T17:16:50.684Z,95958.72
2023-11-28T17:28:06.413Z,95981.59
2023-11-28T17:33:11.561Z,95998.44
2023-11-28T17:38:14.882Z,96002.69
2023-11-28T17:43:28.601Z,96015.09
2023-11-28T17:48:39.555Z,96020.28
2023-11-28T17:53:41.436Z,96015.50
2023-11-28T17:58:43.337Z,96024.78
2023-11-28T18:03:49.203Z,96034.72
2023-11-28T18:08:54.904Z,96044.44
2023-11-28T18:13:56.600Z,96052.44
2023-11-28T18:18:58.515Z,96049.84
2023-11-28T18:24:00.370Z,96061.09
2023-11-28T18:29:02.569Z,96075.53
2023-11-28T18:34:04.348Z,96074.00
2023-11-28T18:39:07.194Z,96084.19
2023-11-28T18:44:13.527Z,96087.25
2023-11-28T18:49:18.106Z,96092.66
2023-11-28T18:54:23.599Z,96105.53
2023-11-28T18:59:26.243Z,96108.81
2023-11-28T19:04:28.190Z,96109.13
2023-11-28T19:09:32.523Z,96109.25
2023-11-28T19:14:34.373Z,96106.31
2023-11-28T19:19:39.384Z,96117.94
2023-11-28T19:24:41.544Z,96126.03
2023-11-28T19:29:43.446Z,96131.41
2023-11-28T19:34:45.260Z,96142.31
2023-11-28T19:39:47.234Z,96152.28
2023-11-28T19:44:49.050Z,96153.94
2023-11-28T19:49:50.830Z,96168.81
2023-11-28T19:54:52.585Z,96178.75
2023-11-28T19:59:55.160Z,96175.13
2023-11-28T20:04:57.206Z,96182.53
2023-11-28T20:09:58.970Z,96188.50
2023-11-28T20:15:00.869Z,96195.53
2023-11-28T20:20:03.007Z,96191.66
2023-11-28T20:25:05.687Z,96195.41
2023-11-28T20:30:08.226Z,96201.25
2023-11-28T20:35:11.615Z,96200.22
2023-11-28T20:40:13.721Z,96213.00
2023-11-28T20:45:16.101Z,96225.91
2023-11-28T20:50:18.466Z,96209.72
2023-11-28T20:55:20.792Z,96221.78
2023-11-28T21:00:23.013Z,96214.38
2023-11-28T21:05:25.618Z,96226.00
2023-11-28T21:10:28.209Z,96233.16
2023-11-28T21:15:30.293Z,96236.41
2023-11-28T21:20:32.319Z,96234.56
2023-11-28T21:25:36.892Z,96241.69
2023-11-28T21:30:39.404Z,96239.81
2023-11-28T21:35:42.502Z,96248.03
2023-11-28T21:40:44.566Z,96249.50
2023-11-28T21:45:46.500Z,96252.81
2023-11-28T21:50:51.056Z,96240.63
2023-11-28T21:55:52.882Z,96244.97
2023-11-28T22:00:54.623Z,96243.47
2023-11-28T22:05:56.305Z,96243.94
2023-11-28T22:10:58.664Z,96241.69
2023-11-28T22:16:00.495Z,96239.47
2023-11-28T22:21:02.813Z,96238.78
2023-11-28T22:26:04.689Z,96238.06
2023-11-28T22:31:06.593Z,96248.50
2023-11-28T22:36:08.526Z,96260.09
2023-11-28T22:41:12.693Z,96260.66
2023-11-28T22:46:14.549Z,96254.25
2023-11-28T22:51:16.705Z,96257.50
2023-11-28T22:56:18.763Z,96255.28
2023-11-28T23:01:23.868Z,96253.31
2023-11-28T23:06:29.188Z,96255.66
2023-11-28T23:11:32.246Z,96256.81
2023-11-28T23:16:34.004Z,96257.13
2023-11-28T23:21:36.096Z,96259.13
2023-11-28T23:26:37.928Z,96263.81
2023-11-28T23:31:40.714Z,96271.75
2023-11-28T23:36:42.474Z,96264.13
2023-11-28T23:41:44.744Z,96267.28
2023-11-28T23:46:46.574Z,96258.13
2023-11-28T23:51:48.768Z,96244.56
2023-11-28T23:56:50.762Z,96246.19
